Time;durP1;ratioP1;P1;durP2;ratioP2;P2;SDS_P1;SDS_P2;PMS_P1;PMS_P2;Temp;Humidity;BMP_temperature;BMP_pressure;BME280_temperature;BME280_humidity;BME280_pressure;Samples;Min_cycle;Max_cycle;Signal;HPM_P1;HPM_P2
2022/08/09 00:01:29;;;;;;;11.40;3.00;;;;;;;18.79;50.55;99691.02;107877;1276;97525;-66
2022/08/09 00:04:19;;;;;;;8.50;2.80;;;;;;;18.77;50.54;99686.70;107853;1276;107819;-66
2022/08/09 00:07:04;;;;;;;8.60;3.30;;;;;;;18.74;50.76;99691.40;107923;1274;97031;-67
2022/08/09 00:09:38;;;;;;;8.00;3.00;;;;;;;18.73;50.67;99695.68;107876;1275;97068;-66
2022/08/09 00:12:06;;;;;;;8.40;3.20;;;;;;;18.72;50.64;99688.63;107821;1273;111493;-66
2022/08/09 00:14:35;;;;;;;7.20;2.70;;;;;;;18.72;50.69;99696.34;107879;1275;97035;-65
2022/08/09 00:17:06;;;;;;;8.40;2.90;;;;;;;18.71;50.70;99692.45;107931;1274;107964;-66
2022/08/09 00:19:34;;;;;;;6.00;2.70;;;;;;;18.67;50.63;99686.95;107900;1274;97328;-66
2022/08/09 00:22:02;;;;;;;6.90;2.80;;;;;;;18.67;50.58;99692.69;107875;1274;97732;-67
2022/08/09 00:24:32;;;;;;;7.80;2.60;;;;;;;18.65;50.55;99695.60;107870;1275;112801;-66
2022/08/09 00:27:01;;;;;;;8.90;2.80;;;;;;;18.64;50.68;99693.17;107745;1274;97250;-66
2022/08/09 00:29:29;;;;;;;10.70;2.90;;;;;;;18.64;50.75;99701.22;107850;1275;107588;-66
2022/08/09 00:32:16;;;;;;;8.30;3.00;;;;;;;18.64;50.69;99693.95;107860;1274;97438;-67
2022/08/09 00:34:55;;;;;;;9.00;3.60;;;;;;;18.61;50.69;99697.06;107906;1275;97061;-66
2022/08/09 00:37:25;;;;;;;8.90;3.10;;;;;;;18.59;50.80;99697.95;107920;1274;112346;-66
2022/08/09 00:39:59;;;;;;;9.70;2.70;;;;;;;18.57;50.62;99704.24;107907;1274;97136;-66
2022/08/09 00:42:43;;;;;;;8.30;2.80;;;;;;;18.53;50.61;99699.40;107714;1274;107929;-67
2022/08/09 00:45:31;;;;;;;6.60;2.40;;;;;;;18.49;50.56;99699.08;107813;1275;97769;-66
2022/08/09 00:48:03;;;;;;;3.10;2.00;;;;;;;18.44;50.50;99698.07;107937;1272;97063;-67
2022/08/09 00:50:33;;;;;;;8.40;2.80;;;;;;;18.43;50.42;99701.13;107882;1274;111673;-66
2022/08/09 00:53:05;;;;;;;7.00;2.50;;;;;;;18.40;50.61;99707.80;107618;1276;97212;-66
2022/08/09 00:55:38;;;;;;;6.80;2.30;;;;;;;18.38;50.55;99708.58;107899;1274;107859;-65
2022/08/09 00:58:26;;;;;;;6.40;2.30;;;;;;;18.36;50.38;99715.55;107877;1274;97047;-66
2022/08/09 01:00:57;;;;;;;7.40;2.70;;;;;;;18.35;50.45;99714.02;107920;1274;97405;-66
2022/08/09 01:03:34;;;;;;;6.00;2.30;;;;;;;18.34;50.39;99709.88;107958;1274;112642;-66
2022/08/09 01:06:20;;;;;;;6.50;2.10;;;;;;;18.33;50.33;99708.31;107887;1276;97627;-65
2022/08/09 01:09:15;;;;;;;6.00;2.20;;;;;;;18.31;50.25;99700.77;107925;1274;107917;-65
2022/08/09 01:11:52;;;;;;;8.10;1.70;;;;;;;18.28;50.34;99703.89;107860;1275;98327;-67
2022/08/09 01:14:39;;;;;;;6.80;2.10;;;;;;;18.28;50.37;99700.70;107935;1274;97037;-67
2022/08/09 01:17:18;;;;;;;5.50;2.20;;;;;;;18.26;50.40;99697.45;107860;1275;113062;-66
2022/08/09 01:19:53;;;;;;;5.90;2.40;;;;;;;18.29;50.42;99696.52;107956;1274;97062;-66
2022/08/09 01:23:07;;;;;;;7.80;2.70;;;;;;;18.27;50.57;99692.14;107848;1275;108193;-65
2022/08/09 01:26:20;;;;;;;3.20;2.10;;;;;;;18.25;50.52;99688.73;107906;1275;97109;-66
2022/08/09 01:28:53;;;;;;;8.00;2.30;;;;;;;18.26;50.15;99694.98;107954;1274;97076;-65
2022/08/09 01:31:25;;;;;;;7.20;2.50;;;;;;;18.25;50.40;99692.55;107912;1275;112852;-66
2022/08/09 01:34:17;;;;;;;6.50;2.30;;;;;;;18.25;50.23;99691.70;107933;1274;97148;-67
2022/08/09 01:36:47;;;;;;;10.20;2.70;;;;;;;18.23;50.30;99689.85;107857;1275;107891;-67
2022/08/09 01:39:16;;;;;;;8.00;2.00;;;;;;;18.21;50.36;99692.41;107907;1274;97030;-66
2022/08/09 01:41:45;;;;;;;6.00;2.50;;;;;;;18.18;50.23;99693.61;107903;1274;97446;-66
2022/08/09 01:44:28;;;;;;;;;;;;;;;18.16;50.43;99697.19;107895;1275;113006;-66
2022/08/09 01:46:59;;;;;;;11.70;2.70;;;;;;;18.12;50.45;99690.06;107924;1274;97174;-66
2022/08/09 01:49:30;;;;;;;8.90;2.30;;;;;;;18.09;50.32;99693.86;107782;1275;107932;-67
2022/08/09 01:52:11;;;;;;;5.70;2.10;;;;;;;18.06;50.33;99701.69;107608;1276;97046;-66
2022/08/09 01:54:46;;;;;;;7.90;2.30;;;;;;;18.04;50.25;99702.60;107915;1274;96982;-66
2022/08/09 01:57:19;;;;;;;3.30;2.10;;;;;;;18.03;50.38;99700.56;107650;1274;113023;-66
2022/08/09 01:59:51;;;;;;;13.00;2.20;;;;;;;18.01;50.29;99700.58;107862;1276;97043;-66
2022/08/09 02:02:24;;;;;;;4.80;2.20;;;;;;;17.99;50.38;99697.98;107847;1274;108168;-67
2022/08/09 02:05:05;;;;;;;4.20;2.20;;;;;;;17.96;50.45;99690.89;107891;1276;97039;-66
2022/08/09 02:07:53;;;;;;;5.90;2.10;;;;;;;17.96;50.40;99696.08;107908;1276;97018;-66
2022/08/09 02:10:44;;;;;;;4.10;2.40;;;;;;;17.95;50.25;99703.25;107888;1274;112570;-66
2022/08/09 02:13:20;;;;;;;3.30;1.80;;;;;;;17.91;50.35;99688.59;107958;1274;97118;-66
2022/08/09 02:16:05;;;;;;;3.50;2.10;;;;;;;17.91;50.47;99692.45;107884;1275;107674;-66
2022/08/09 02:18:37;;;;;;;6.30;2.60;;;;;;;17.88;50.39;99689.19;107890;1275;97057;-66
2022/08/09 02:21:15;;;;;;;8.70;2.40;;;;;;;17.87;50.51;99686.73;107906;1274;97094;-66
2022/08/09 02:23:53;;;;;;;6.50;2.30;;;;;;;17.86;50.44;99682.34;107887;1276;112827;-66
2022/08/09 02:26:26;;;;;;;5.20;2.10;;;;;;;17.83;50.37;99685.48;107800;1274;97150;-67
2022/08/09 02:29:09;;;;;;;5.30;2.20;;;;;;;17.82;50.44;99685.43;107765;1274;107913;-66
2022/08/09 02:31:42;;;;;;;5.90;2.00;;;;;;;17.78;50.45;99679.85;107764;1274;97080;-66
2022/08/09 02:34:14;;;;;;;6.80;2.40;;;;;;;17.75;50.42;99679.63;107954;1274;96976;-67
2022/08/09 02:37:06;;;;;;;9.00;2.30;;;;;;;17.73;50.59;99686.20;107870;1275;112897;-67
2022/08/09 02:39:43;;;;;;;5.20;2.40;;;;;;;17.70;50.45;99691.20;107915;1274;97046;-65
2022/08/09 02:42:26;;;;;;;7.80;2.30;;;;;;;17.68;50.61;99691.88;107859;1276;106825;-66
2022/08/09 02:45:00;;;;;;;8.20;2.20;;;;;;;17.67;50.60;99688.83;107916;1274;97070;-67
2022/08/09 02:47:31;;;;;;;5.50;2.00;;;;;;;17.64;50.47;99687.42;107944;1274;97016;-66
2022/08/09 02:50:23;;;;;;;7.50;2.30;;;;;;;17.61;50.51;99689.86;107896;1275;111942;-66
2022/08/09 02:52:58;;;;;;;9.10;2.70;;;;;;;17.56;50.55;99690.42;107920;1274;97282;-66
2022/08/09 02:55:29;;;;;;;8.50;2.70;;;;;;;17.53;50.65;99690.91;107863;1276;107624;-66
2022/08/09 02:58:21;;;;;;;6.10;2.40;;;;;;;17.49;50.81;99691.99;107923;1274;97364;-67
2022/08/09 03:01:08;;;;;;;5.00;2.40;;;;;;;17.46;50.63;99694.12;107905;1275;97049;-67
2022/08/09 03:03:43;;;;;;;4.70;2.20;;;;;;;17.44;50.83;99695.55;107920;1274;112871;-66
2022/08/09 03:06:32;;;;;;;8.90;2.10;;;;;;;17.38;50.76;99694.63;107954;1274;97053;-67
2022/08/09 03:09:03;;;;;;;5.70;2.60;;;;;;;17.36;50.82;99699.42;107844;1275;108321;-66
2022/08/09 03:11:33;;;;;;;7.00;2.50;;;;;;;17.34;50.92;99700.06;107897;1274;98412;-65
2022/08/09 03:14:21;;;;;;;5.50;2.10;;;;;;;17.31;50.84;99702.06;107871;1275;99332;-67
2022/08/09 03:16:57;;;;;;;5.60;2.40;;;;;;;17.27;50.91;99702.08;107923;1274;112946;-66
2022/08/09 03:19:26;;;;;;;5.20;2.30;;;;;;;17.24;50.99;99701.40;107943;1274;97023;-67
2022/08/09 03:22:15;;;;;;;8.60;2.20;;;;;;;17.23;51.06;99705.14;107892;1274;108729;-67
2022/08/09 03:24:53;;;;;;;7.00;2.20;;;;;;;17.18;51.11;99701.61;107929;1274;98058;-67
2022/08/09 03:27:43;;;;;;;6.50;2.30;;;;;;;17.18;51.15;99709.19;107833;1274;97028;-68
2022/08/09 03:30:14;;;;;;;12.80;2.60;;;;;;;17.14;51.05;99704.48;107908;1274;112874;-67
2022/08/09 03:33:04;;;;;;;5.20;2.10;;;;;;;17.13;51.25;99700.81;107914;1274;97471;-67
2022/08/09 03:35:51;;;;;;;8.70;2.90;;;;;;;17.10;51.44;99703.38;107793;1274;107743;-66
2022/08/09 03:38:41;;;;;;;9.20;2.80;;;;;;;17.10;51.27;99705.20;107891;1274;97183;-67
2022/08/09 03:41:14;;;;;;;5.80;2.70;;;;;;;17.11;51.26;99702.29;107927;1274;97015;-68
2022/08/09 03:43:46;;;;;;;4.90;2.60;;;;;;;17.11;51.34;99706.73;107932;1274;112926;-67
2022/08/09 03:46:35;;;;;;;6.40;2.40;;;;;;;17.13;51.36;99706.71;107896;1274;97138;-67
2022/08/09 03:49:04;;;;;;;6.60;2.40;;;;;;;17.14;51.59;99707.70;107022;1274;1103550;-67
2022/08/09 03:51:42;;;;;;;7.30;2.20;;;;;;;17.15;51.39;99702.48;107891;1274;97373;-66
2022/08/09 03:54:30;;;;;;;6.70;2.70;;;;;;;17.15;51.59;99704.97;107752;1274;97469;-67
2022/08/09 03:57:01;;;;;;;5.60;2.40;;;;;;;17.15;51.45;99703.15;107881;1274;112829;-67
2022/08/09 03:59:45;;;;;;;6.80;3.00;;;;;;;17.16;51.68;99709.20;107910;1274;97030;-67
2022/08/09 04:02:24;;;;;;;9.30;2.60;;;;;;;17.15;51.78;99712.98;107863;1274;107886;-67
2022/08/09 04:05:00;;;;;;;7.60;2.30;;;;;;;17.16;51.63;99712.38;107884;1274;97904;-67
2022/08/09 04:07:34;;;;;;;8.10;2.60;;;;;;;17.16;51.83;99709.38;107736;1274;97217;-64
2022/08/09 04:10:23;;;;;;;9.40;3.10;;;;;;;17.14;51.85;99708.28;107894;1274;112931;-65
2022/08/09 04:12:59;;;;;;;7.10;2.60;;;;;;;17.17;51.99;99711.90;107913;1274;97349;-64
2022/08/09 04:15:31;;;;;;;8.80;3.10;;;;;;;17.18;51.81;99718.45;107890;1274;107863;-67
2022/08/09 04:18:20;;;;;;;9.60;3.70;;;;;;;17.19;52.09;99716.98;107901;1274;97245;-64
2022/08/09 04:20:49;;;;;;;9.90;3.50;;;;;;;17.19;52.02;99719.63;107774;1276;97051;-64
2022/08/09 04:23:20;;;;;;;7.90;2.90;;;;;;;17.19;52.15;99721.25;107780;1275;112896;-64
2022/08/09 04:25:52;;;;;;;13.00;2.80;;;;;;;17.21;52.18;99727.75;107910;1274;97072;-64
2022/08/09 04:28:21;;;;;;;6.60;2.50;;;;;;;17.20;52.23;99727.42;107876;1274;107849;-66
2022/08/09 04:31:04;;;;;;;10.10;3.00;;;;;;;17.22;52.34;99726.71;107892;1274;97332;-68
2022/08/09 04:33:41;;;;;;;9.70;3.10;;;;;;;17.24;52.31;99725.48;107895;1274;97059;-68
2022/08/09 04:36:22;;;;;;;11.10;3.00;;;;;;;17.25;52.39;99723.23;107862;1274;112484;-67
2022/08/09 04:38:52;;;;;;;6.70;2.50;;;;;;;17.25;52.34;99720.84;107899;1274;97144;-68
2022/08/09 04:41:20;;;;;;;6.10;2.80;;;;;;;17.27;52.36;99721.44;107886;1274;107992;-67
2022/08/09 04:43:52;;;;;;;5.90;2.60;;;;;;;17.30;52.32;99724.09;107886;1274;97403;-66
2022/08/09 04:46:32;;;;;;;12.20;3.20;;;;;;;17.32;52.36;99722.63;107923;1274;97016;-66
2022/08/09 04:49:20;;;;;;;6.80;3.00;;;;;;;17.35;52.48;99727.02;107884;1274;112913;-66
2022/08/09 04:52:06;;;;;;;8.60;2.90;;;;;;;17.38;52.52;99727.11;107926;1274;97034;-67
2022/08/09 04:54:36;;;;;;;7.80;2.90;;;;;;;17.39;52.55;99723.40;107911;1274;107899;-66
2022/08/09 04:57:04;;;;;;;8.90;2.90;;;;;;;17.44;52.79;99728.02;107933;1274;97062;-67
2022/08/09 04:59:36;;;;;;;10.40;3.90;;;;;;;17.46;52.80;99724.41;107926;1274;97094;-65
2022/08/09 05:02:04;;;;;;;11.30;4.40;;;;;;;17.49;52.73;99728.05;107926;1274;112918;-66
2022/08/09 05:04:33;;;;;;;8.50;3.60;;;;;;;17.52;52.88;99720.48;107915;1274;97098;-65
2022/08/09 05:07:00;;;;;;;8.50;3.20;;;;;;;17.54;52.84;99723.60;107882;1274;107800;-67
2022/08/09 05:09:29;;;;;;;8.90;3.00;;;;;;;17.58;52.90;99729.39;107904;1274;97024;-66
2022/08/09 05:12:09;;;;;;;10.60;2.80;;;;;;;17.61;53.03;99726.44;107923;1274;97082;-66
2022/08/09 05:14:39;;;;;;;11.20;3.30;;;;;;;17.62;52.98;99730.45;107891;1274;112852;-66
2022/08/09 05:17:08;;;;;;;8.30;2.90;;;;;;;17.66;53.05;99732.42;107956;1274;97056;-66
2022/08/09 05:19:56;;;;;;;7.50;2.80;;;;;;;17.72;52.91;99740.29;107791;1274;107891;-66
2022/08/09 05:22:24;;;;;;;10.30;3.00;;;;;;;17.78;52.99;99748.23;107912;1274;97083;-66
2022/08/09 05:25:13;;;;;;;7.60;3.00;;;;;;;17.83;53.04;99748.80;107929;1274;98409;-66
2022/08/09 05:27:41;;;;;;;11.10;3.10;;;;;;;17.87;53.02;99751.14;107883;1274;112857;-66
2022/08/09 05:30:15;;;;;;;8.10;2.90;;;;;;;17.93;53.30;99749.21;107935;1274;97081;-66
2022/08/09 05:32:46;;;;;;;7.20;3.10;;;;;;;17.97;53.12;99751.80;107794;1275;107816;-66
2022/08/09 05:35:20;;;;;;;7.80;2.80;;;;;;;18.04;53.31;99757.16;107774;1275;97061;-65
2022/08/09 05:37:49;;;;;;;9.10;2.50;;;;;;;18.08;53.33;99758.35;107924;1274;97026;-67
2022/08/09 05:40:17;;;;;;;8.30;2.90;;;;;;;18.12;53.30;99756.23;107924;1274;112942;-66
2022/08/09 05:42:46;;;;;;;11.70;2.60;;;;;;;18.15;53.26;99757.77;107901;1274;97087;-66
2022/08/09 05:45:14;;;;;;;10.80;3.30;;;;;;;18.20;53.25;99757.80;107866;1274;107859;-65
2022/08/09 05:47:42;;;;;;;7.40;3.20;;;;;;;18.24;53.31;99759.92;107915;1274;97111;-66
2022/08/09 05:50:24;;;;;;;14.80;3.20;;;;;;;18.30;53.31;99761.90;107880;1274;97112;-65
2022/08/09 05:53:12;;;;;;;5.90;2.50;;;;;;;18.37;53.39;99762.39;107575;1276;112931;-68
2022/08/09 05:55:58;;;;;;;7.90;2.80;;;;;;;18.38;53.38;99761.13;107933;1274;97472;-66
2022/08/09 05:58:28;;;;;;;9.30;3.30;;;;;;;18.48;53.36;99764.88;107866;1274;107784;-66
2022/08/09 06:00:55;;;;;;;8.50;3.30;;;;;;;18.56;53.43;99766.45;107886;1274;97021;-68
2022/08/09 06:03:24;;;;;;;7.40;3.20;;;;;;;18.65;53.31;99768.92;107884;1274;97059;-66
2022/08/09 06:06:10;;;;;;;9.00;3.90;;;;;;;18.73;53.47;99769.13;107913;1274;113617;-66
2022/08/09 06:08:39;;;;;;;14.10;4.30;;;;;;;18.81;53.47;99774.02;107921;1274;97030;-66
2022/08/09 06:11:08;;;;;;;7.60;3.00;;;;;;;18.88;53.33;99766.34;107926;1274;107665;-66
2022/08/09 06:13:44;;;;;;;7.00;3.00;;;;;;;18.96;53.56;99764.30;107891;1274;97141;-66
2022/08/09 06:16:14;;;;;;;10.30;3.60;;;;;;;19.05;53.45;99770.69;107897;1274;97045;-67
2022/08/09 06:18:43;;;;;;;8.50;2.80;;;;;;;19.11;53.36;99763.29;107872;1274;113747;-65
2022/08/09 06:21:11;;;;;;;8.50;3.20;;;;;;;19.21;53.49;99767.79;107923;1274;97086;-66
2022/08/09 06:23:44;;;;;;;5.90;2.70;;;;;;;19.30;53.54;99772.34;107904;1274;108820;-66
2022/08/09 06:26:28;;;;;;;8.90;3.20;;;;;;;19.37;53.52;99775.10;107894;1274;97328;-66
2022/08/09 06:28:58;;;;;;;6.50;3.20;;;;;;;19.43;53.49;99775.77;107916;1274;96992;-65
2022/08/09 06:31:33;;;;;;;10.20;3.40;;;;;;;19.49;53.46;99782.73;107893;1274;112879;-65
2022/08/09 06:34:23;;;;;;;7.30;3.30;;;;;;;19.53;53.38;99779.70;107879;1274;97521;-66
2022/08/09 06:36:56;;;;;;;;;;;;;;;19.58;53.55;99779.17;107926;1274;107827;-66
2022/08/09 06:39:30;;;;;;;14.10;3.10;;;;;;;19.62;53.51;99780.33;107798;1276;97263;-67
2022/08/09 06:42:19;;;;;;;13.10;3.20;;;;;;;19.67;53.57;99788.55;107897;1274;97087;-66
2022/08/09 06:44:55;;;;;;;14.20;3.40;;;;;;;19.74;53.55;99782.59;107853;1274;112814;-66
2022/08/09 06:47:25;;;;;;;11.40;3.70;;;;;;;19.81;53.39;99781.31;107742;1274;97313;-66
2022/08/09 06:49:56;;;;;;;10.00;3.60;;;;;;;19.88;53.45;99781.20;107891;1274;107873;-67
2022/08/09 06:52:45;;;;;;;11.50;3.60;;;;;;;20.02;53.51;99777.15;107883;1274;97069;-66
2022/08/09 06:55:18;;;;;;;15.20;3.60;;;;;;;20.16;53.54;99782.41;107946;1274;97032;-65
2022/08/09 06:57:51;;;;;;;13.20;3.70;;;;;;;20.29;53.57;99777.88;107930;1274;112818;-65
2022/08/09 07:00:38;;;;;;;12.20;3.50;;;;;;;20.48;53.43;99783.71;107944;1274;97090;-66
2022/08/09 07:03:25;;;;;;;7.40;3.10;;;;;;;20.68;53.54;99787.69;107763;1274;108838;-67
2022/08/09 07:05:57;;;;;;;13.20;3.30;;;;;;;20.87;53.54;99791.20;107919;1274;98369;-66
2022/08/09 07:08:33;;;;;;;10.30;3.10;;;;;;;21.02;53.38;99785.13;107914;1274;97431;-67
2022/08/09 07:11:02;;;;;;;9.40;3.50;;;;;;;21.26;53.22;99791.11;107903;1274;112645;-66
2022/08/09 07:13:33;;;;;;;12.80;3.30;;;;;;;21.51;53.16;99786.45;107937;1274;97071;-67
2022/08/09 07:16:20;;;;;;;11.40;3.10;;;;;;;22.44;52.70;99787.30;107938;1274;107065;-67
2022/08/09 07:19:11;;;;;;;11.10;3.20;;;;;;;23.26;52.32;99781.90;107963;1274;97146;-66
2022/08/09 07:21:45;;;;;;;9.50;3.00;;;;;;;24.28;52.16;99788.35;107813;1274;97135;-66
2022/08/09 07:24:27;;;;;;;14.30;3.50;;;;;;;24.71;52.53;99788.67;107931;1274;111493;-66
2022/08/09 07:27:10;;;;;;;9.00;3.00;;;;;;;25.04;52.46;99790.23;107929;1274;97493;-69
2022/08/09 07:29:58;;;;;;;13.40;4.00;;;;;;;25.09;52.41;99798.27;107942;1274;107767;-66
2022/08/09 07:32:28;;;;;;;12.20;3.40;;;;;;;25.11;52.25;99800.57;107914;1274;97284;-67
2022/08/09 07:35:07;;;;;;;9.40;3.20;;;;;;;25.26;51.98;99800.69;107828;1274;97009;-66
2022/08/09 07:37:39;;;;;;;11.60;3.80;;;;;;;25.59;51.52;99809.02;107791;1274;112866;-67
2022/08/09 07:40:14;;;;;;;11.90;3.10;;;;;;;25.96;51.30;99804.36;107951;1274;97675;-67
2022/08/09 07:42:55;;;;;;;9.50;3.30;;;;;;;26.06;51.39;99812.25;107898;1274;106830;-68
2022/08/09 07:45:26;;;;;;;14.30;3.90;;;;;;;25.95;51.36;99806.92;107792;1274;97059;-74
2022/08/09 07:48:09;;;;;;;9.50;3.20;;;;;;;25.76;50.90;99810.60;107972;1272;97022;-79
2022/08/09 07:50:58;;;;;;;8.80;3.30;;;;;;;25.79;50.99;99813.11;107941;1274;111769;-71
2022/08/09 07:53:49;;;;;;;12.20;3.40;;;;;;;25.83;50.70;99811.31;107990;1274;97540;-68
2022/08/09 07:56:36;;;;;;;10.70;3.30;;;;;;;25.80;50.54;99813.16;107900;1274;108278;-70
2022/08/09 07:59:17;;;;;;;8.90;2.90;;;;;;;25.69;50.56;99814.67;107804;1274;98439;-70
2022/08/09 08:02:05;;;;;;;11.40;3.90;;;;;;;25.62;50.48;99819.96;107893;1274;97241;-69
2022/08/09 08:04:35;;;;;;;9.10;4.00;;;;;;;25.57;50.32;99816.75;107833;1274;112852;-69
2022/08/09 08:07:03;;;;;;;8.50;3.10;;;;;;;25.50;50.16;99822.16;107964;1274;98997;-70
2022/08/09 08:09:41;;;;;;;7.70;2.80;;;;;;;25.43;49.90;99820.05;107967;1274;107939;-70
2022/08/09 08:12:20;;;;;;;8.80;3.10;;;;;;;25.34;49.65;99823.70;107769;1276;97746;-70
2022/08/09 08:14:56;;;;;;;10.40;2.70;;;;;;;25.23;49.84;99827.45;107799;1274;99196;-70
2022/08/09 08:17:25;;;;;;;6.80;2.70;;;;;;;25.09;49.49;99827.10;107798;1274;111771;-70
2022/08/09 08:20:13;;;;;;;9.50;2.90;;;;;;;24.97;49.48;99831.08;107907;1274;97574;-69
2022/08/09 08:22:41;;;;;;;6.90;2.70;;;;;;;24.95;49.34;99832.77;107852;1276;107707;-70
2022/08/09 08:25:09;;;;;;;11.80;3.50;;;;;;;24.91;49.21;99836.65;107952;1274;97028;-70
2022/08/09 08:27:40;;;;;;;8.20;2.50;;;;;;;24.84;49.27;99837.05;107930;1274;97102;-69
2022/08/09 08:30:12;;;;;;;11.50;3.00;;;;;;;24.76;48.98;99835.80;107849;1274;112902;-70
2022/08/09 08:32:40;;;;;;;9.70;2.40;;;;;;;24.68;48.90;99827.54;107963;1274;97429;-69
2022/08/09 08:35:20;;;;;;;9.40;2.90;;;;;;;24.68;48.64;99841.41;107915;1274;107743;-70
2022/08/09 08:37:49;;;;;;;10.40;3.10;;;;;;;24.59;48.67;99838.04;107837;1274;97003;-70
2022/08/09 08:40:26;;;;;;;7.30;3.20;;;;;;;24.54;48.82;99842.77;107801;1274;97137;-71
2022/08/09 08:42:57;;;;;;;9.60;2.90;;;;;;;24.50;48.66;99836.02;107960;1274;113749;-70
2022/08/09 08:45:32;;;;;;;9.00;3.30;;;;;;;24.45;48.46;99836.27;107933;1274;97518;-69
2022/08/09 08:48:05;;;;;;;10.00;3.20;;;;;;;24.37;48.48;99836.91;107939;1274;107578;-69
2022/08/09 08:50:37;;;;;;;11.50;3.40;;;;;;;24.41;48.34;99832.88;107930;1272;97132;-69
2022/08/09 08:53:06;;;;;;;8.60;3.60;;;;;;;24.49;48.33;99834.39;107972;1274;97456;-69
2022/08/09 08:55:42;;;;;;;10.90;3.20;;;;;;;24.72;48.29;99829.70;107921;1274;112697;-69
2022/08/09 08:58:10;;;;;;;7.70;3.40;;;;;;;25.04;48.26;99827.08;107953;1274;97514;-70
2022/08/09 09:00:41;;;;;;;8.70;3.40;;;;;;;25.37;48.38;99823.36;107895;1274;107760;-68
2022/08/09 09:03:15;;;;;;;10.50;3.50;;;;;;;25.84;47.80;99821.36;107897;1274;97722;-69
2022/08/09 09:06:04;;;;;;;11.30;3.40;;;;;;;26.52;47.86;99823.30;107956;1274;97093;-69
2022/08/09 09:08:36;;;;;;;12.90;3.90;;;;;;;27.38;47.54;99821.67;107795;1274;112873;-68
2022/08/09 09:11:10;;;;;;;10.30;3.30;;;;;;;28.35;47.44;99821.58;107956;1274;97525;-69
2022/08/09 09:13:49;;;;;;;9.30;2.90;;;;;;;29.43;47.38;99814.30;107954;1274;107749;-69
2022/08/09 09:16:30;;;;;;;6.30;3.40;;;;;;;30.38;47.27;99812.92;107945;1274;97126;-69
2022/08/09 09:19:06;;;;;;;10.00;3.30;;;;;;;31.33;47.06;99810.11;107736;1276;97149;-69
2022/08/09 09:21:59;;;;;;;7.90;3.20;;;;;;;31.95;46.82;99815.36;107969;1274;113829;-70
2022/08/09 09:24:37;;;;;;;7.90;3.20;;;;;;;32.17;46.73;99807.69;107967;1274;97442;-70
2022/08/09 09:27:08;;;;;;;7.70;2.90;;;;;;;32.46;46.29;99801.89;107983;1274;107738;-69
2022/08/09 09:29:56;;;;;;;8.50;2.80;;;;;;;32.56;45.98;99809.66;107924;1274;97108;-70
2022/08/09 09:33:01;;;;;;;6.00;2.40;;;;;;;32.43;45.67;99800.81;107996;1273;97027;-69
2022/08/09 09:35:59;;;;;;;5.40;2.20;;;;;;;32.13;45.29;99803.90;107948;1274;112724;-69
2022/08/09 09:38:48;;;;;;;8.00;2.30;;;;;;;31.72;45.15;99808.52;107997;1274;97591;-70
2022/08/09 09:41:27;;;;;;;14.60;2.80;;;;;;;31.21;44.51;99814.36;107932;1274;107869;-69
2022/08/09 09:44:06;;;;;;;6.10;2.30;;;;;;;30.78;44.44;99810.77;107964;1274;97088;-69
2022/08/09 09:46:42;;;;;;;12.00;2.50;;;;;;;30.50;44.37;99805.92;107978;1274;97095;-69
2022/08/09 09:49:22;;;;;;;8.40;2.50;;;;;;;30.36;44.01;99806.56;107963;1274;113154;-69
2022/08/09 09:52:11;;;;;;;10.90;2.70;;;;;;;30.42;43.53;99806.63;107835;1274;97543;-69
2022/08/09 09:55:02;;;;;;;8.60;3.10;;;;;;;30.77;43.15;99801.91;107968;1274;108227;-69
2022/08/09 09:57:58;;;;;;;9.30;2.70;;;;;;;31.10;42.76;99802.85;107974;1274;97039;-68
2022/08/09 10:00:31;;;;;;;8.70;2.90;;;;;;;31.19;42.26;99801.71;108001;1274;97005;-69
2022/08/09 10:03:01;;;;;;;8.60;2.90;;;;;;;31.32;42.19;99801.46;107976;1274;112768;-68
2022/08/09 10:05:57;;;;;;;6.40;2.60;;;;;;;31.44;42.30;99791.34;107982;1274;97475;-69
2022/08/09 10:08:31;;;;;;;6.40;2.90;;;;;;;31.64;42.13;99793.75;107984;1274;107632;-69
2022/08/09 10:11:15;;;;;;;5.20;2.50;;;;;;;31.68;41.81;99794.75;107963;1274;97129;-69
2022/08/09 10:14:03;;;;;;;7.10;2.50;;;;;;;31.46;41.27;99798.10;107984;1274;96985;-69
2022/08/09 10:16:36;;;;;;;7.80;2.60;;;;;;;31.14;41.14;99800.54;107727;1274;113197;-69
2022/08/09 10:19:36;;;;;;;7.10;2.90;;;;;;;30.73;40.80;99796.08;107997;1274;97402;-69
2022/08/09 10:22:04;;;;;;;10.10;3.20;;;;;;;30.25;40.58;99795.81;107946;1274;107760;-68
2022/08/09 10:24:32;;;;;;;5.50;2.40;;;;;;;29.70;40.16;99795.86;107782;1274;97092;-69
2022/08/09 10:27:03;;;;;;;7.10;2.60;;;;;;;29.36;40.20;99796.45;107976;1274;96992;-69
2022/08/09 10:29:37;;;;;;;8.80;2.80;;;;;;;29.15;40.02;99794.33;107954;1274;112934;-69
2022/08/09 10:32:26;;;;;;;6.40;2.40;;;;;;;28.97;39.90;99797.63;107845;1275;97513;-69
2022/08/09 10:35:09;;;;;;;7.90;2.60;;;;;;;28.87;39.86;99797.73;107982;1274;107664;-69
2022/08/09 10:37:42;;;;;;;12.40;2.70;;;;;;;28.79;39.47;99792.06;107971;1273;97013;-69
2022/08/09 10:40:13;;;;;;;9.50;2.50;;;;;;;28.74;39.60;99786.64;107997;1274;96912;-69
2022/08/09 10:43:00;;;;;;;10.90;2.90;;;;;;;28.60;39.21;99795.98;107972;1274;112962;-69
2022/08/09 10:45:30;;;;;;;8.10;2.40;;;;;;;28.42;39.24;99799.38;107903;1276;97480;-68
2022/08/09 10:48:32;;;;;;;6.30;2.00;;;;;;;28.20;38.91;99798.32;107968;1274;107823;-69
2022/08/09 10:51:44;;;;;;;12.90;2.40;;;;;;;28.09;38.98;99798.73;107855;1276;96992;-69
2022/08/09 10:54:24;;;;;;;5.30;2.30;;;;;;;27.89;38.69;99797.34;107137;1282;97072;-69
2022/08/09 10:57:08;;;;;;;5.10;2.10;;;;;;;27.72;38.77;99803.59;107086;1280;112927;-68
2022/08/09 10:59:37;;;;;;;;;;;;;;;27.48;38.52;99802.02;107574;1276;97029;-69
2022/08/09 11:02:37;;;;;;;7.50;2.60;;;;;;;27.27;38.66;99803.48;107850;1276;107800;-68
2022/08/09 11:05:26;;;;;;;10.60;2.70;;;;;;;27.10;38.59;99806.05;107886;1274;97118;-68
2022/08/09 11:08:35;;;;;;;4.90;2.30;;;;;;;26.98;38.69;99798.25;107895;1275;96975;-68
2022/08/09 11:11:16;;;;;;;5.00;2.20;;;;;;;26.83;38.50;99800.71;107899;1274;113690;-68
2022/08/09 11:13:44;;;;;;;6.00;2.30;;;;;;;26.68;38.58;99798.46;107945;1274;97407;-68
2022/08/09 11:16:38;;;;;;;8.90;2.50;;;;;;;26.50;38.38;99802.95;107806;1276;107951;-68
2022/08/09 11:19:08;;;;;;;8.50;2.70;;;;;;;26.34;38.34;99797.70;107913;1274;97103;-68
2022/08/09 11:21:56;;;;;;;7.90;3.00;;;;;;;26.24;38.33;99800.23;107711;1276;97264;-68
2022/08/09 11:25:17;;;;;;;5.70;2.50;;;;;;;26.11;38.32;99800.70;107877;1274;112640;-68
2022/08/09 11:27:55;;;;;;;9.90;2.60;;;;;;;25.99;38.37;99801.15;107831;1274;97420;-68
2022/08/09 11:30:34;;;;;;;6.20;2.80;;;;;;;25.90;38.30;99799.95;107913;1274;108163;-67
2022/08/09 11:33:38;;;;;;;9.70;2.60;;;;;;;25.81;38.28;99797.20;107915;1274;97114;-68
2022/08/09 11:36:07;;;;;;;7.40;2.60;;;;;;;25.74;38.41;99796.66;107842;1276;96955;-70
2022/08/09 11:38:41;;;;;;;3.70;2.50;;;;;;;25.67;38.26;99790.72;107949;1274;112768;-68
2022/08/09 11:41:13;;;;;;;6.40;2.30;;;;;;;25.65;38.31;99784.63;107888;1274;97680;-69
2022/08/09 11:43:47;;;;;;;10.00;2.50;;;;;;;25.63;38.40;99780.11;107856;1275;108665;-70
2022/08/09 11:46:15;;;;;;;8.40;2.50;;;;;;;25.62;38.13;99775.42;107918;1274;97008;-71
2022/08/09 11:49:00;;;;;;;12.30;2.70;;;;;;;25.62;38.24;99771.77;107898;1276;96961;-68
2022/08/09 11:52:01;;;;;;;11.30;2.60;;;;;;;25.59;38.22;99766.04;107856;1274;112790;-69
2022/08/09 11:55:26;;;;;;;9.70;2.40;;;;;;;25.72;38.62;99768.18;107938;1274;97463;-70
2022/08/09 11:58:14;;;;;;;7.30;2.70;;;;;;;25.91;38.44;99771.21;107963;1274;107728;-76
2022/08/09 12:00:53;;;;;;;7.70;2.50;;;;;;;26.03;38.59;99769.23;107953;1274;96993;-71
2022/08/09 12:03:23;;;;;;;8.30;2.80;;;;;;;26.11;38.60;99763.71;107841;1274;97062;-77
2022/08/09 12:06:18;;;;;;;10.50;2.70;;;;;;;26.16;38.79;99761.48;107853;1275;112593;-69
2022/08/09 12:09:05;;;;;;;3.50;2.10;;;;;;;26.14;38.47;99759.94;107926;1273;97072;-69
2022/08/09 12:12:01;;;;;;;5.40;2.80;;;;;;;26.12;38.29;99753.71;107910;1274;107778;-70
2022/08/09 12:14:33;;;;;;;8.00;2.50;;;;;;;26.12;38.28;99754.08;107921;1274;97468;-70